createdAt,value
2023-02-08T00:01:26.338Z,-3.12
2023-02-08T00:03:53.203Z,-3.20
2023-02-08T00:06:19.725Z,-3.13
2023-02-08T00:08:46.719Z,-3.20
2023-02-08T00:11:13.113Z,-3.07
2023-02-08T00:13:42.266Z,-3.23
2023-02-08T00:16:09.731Z,-3.46
2023-02-08T00:18:36.091Z,-3.49
2023-02-08T00:21:11.241Z,-3.48
2023-02-08T00:23:37.748Z,-3.51
2023-02-08T00:26:04.764Z,-3.52
2023-02-08T00:28:31.159Z,-3.56
2023-02-08T00:30:58.303Z,-3.55
2023-02-08T00:33:24.891Z,-3.61
2023-02-08T00:35:51.391Z,-3.58
2023-02-08T00:38:17.777Z,-3.55
2023-02-08T00:40:44.221Z,-3.53
2023-02-08T00:43:10.631Z,-3.64
2023-02-08T00:45:36.995Z,-3.72
2023-02-08T00:48:03.420Z,-3.58
2023-02-08T00:50:29.802Z,-3.53
2023-02-08T00:52:56.197Z,-3.73
2023-02-08T00:55:22.616Z,-3.67
2023-02-08T00:57:48.977Z,-3.70
2023-02-08T01:00:15.481Z,-3.81
2023-02-08T01:02:42.141Z,-3.84
2023-02-08T01:05:08.843Z,-3.74
2023-02-08T01:07:38.447Z,-3.77
2023-02-08T01:10:06.338Z,-3.85
2023-02-08T01:12:32.884Z,-3.79
2023-02-08T01:14:59.229Z,-3.79
2023-02-08T01:17:25.638Z,-3.80
2023-02-08T01:19:51.985Z,-3.81
2023-02-08T01:22:18.403Z,-3.95
2023-02-08T01:24:44.801Z,-3.92
2023-02-08T01:27:11.149Z,-3.83
2023-02-08T01:29:37.482Z,-3.93
2023-02-08T01:32:04.042Z,-4.09
2023-02-08T01:34:30.424Z,-4.06
2023-02-08T01:36:56.818Z,-4.12
2023-02-08T01:39:23.219Z,-4.03
2023-02-08T01:41:49.629Z,-4.27
2023-02-08T01:44:17.549Z,-4.18
2023-02-08T01:46:50.988Z,-4.23
2023-02-08T01:49:36.703Z,-4.26
2023-02-08T01:52:14.343Z,-4.19
2023-02-08T01:54:49.301Z,-4.32
2023-02-08T01:57:16.501Z,-4.30
2023-02-08T01:59:49.378Z,-4.22
2023-02-08T02:02:18.944Z,-4.35
2023-02-08T02:04:45.818Z,-4.42
2023-02-08T02:07:13.427Z,-4.37
2023-02-08T02:09:47.396Z,-4.31
2023-02-08T02:12:14.513Z,-4.26
2023-02-08T02:14:42.233Z,-4.21
2023-02-08T02:17:12.294Z,-4.12
2023-02-08T02:19:55.642Z,-4.21
2023-02-08T02:22:31.167Z,-4.07
2023-02-08T02:25:03.385Z,-4.05
2023-02-08T02:28:04.383Z,-4.14
2023-02-08T02:31:00.462Z,-4.21
2023-02-08T02:33:53.634Z,-4.27
2023-02-08T02:36:35.070Z,-4.33
2023-02-08T02:39:25.017Z,-4.31
2023-02-08T02:42:24.276Z,-4.39
2023-02-08T02:45:31.872Z,-4.47
2023-02-08T02:48:10.214Z,-4.50
2023-02-08T02:50:55.136Z,-4.58
2023-02-08T02:53:59.262Z,-4.57
2023-02-08T02:56:37.115Z,-4.55
2023-02-08T02:59:06.740Z,-4.52
2023-02-08T03:01:33.884Z,-4.65
2023-02-08T03:04:00.955Z,-4.65
2023-02-08T03:06:33.345Z,-4.60
2023-02-08T03:09:22.003Z,-4.59
2023-02-08T03:11:58.841Z,-4.65
2023-02-08T03:14:35.438Z,-4.60
2023-02-08T03:17:33.886Z,-4.67
2023-02-08T03:20:06.928Z,-4.66
2023-02-08T03:22:51.132Z,-4.64
2023-02-08T03:25:31.896Z,-4.56
2023-02-08T03:28:23.998Z,-4.66
2023-02-08T03:31:02.316Z,-4.65
2023-02-08T03:33:41.361Z,-4.57
2023-02-08T03:36:37.217Z,-4.65
2023-02-08T03:39:09.655Z,-4.56
2023-02-08T03:41:40.081Z,-4.61
2023-02-08T03:44:09.670Z,-4.61
2023-02-08T03:46:41.428Z,-4.63
2023-02-08T03:49:13.758Z,-4.51
2023-02-08T03:51:40.752Z,-4.71
2023-02-08T03:54:12.780Z,-4.77
2023-02-08T03:56:46.248Z,-4.62
2023-02-08T03:59:20.934Z,-4.66
2023-02-08T04:01:57.692Z,-4.63
2023-02-08T04:04:26.418Z,-4.58
2023-02-08T04:06:53.637Z,-4.59
2023-02-08T04:09:20.038Z,-4.57
2023-02-08T04:11:46.370Z,-4.59
2023-02-08T04:14:12.831Z,-4.61
2023-02-08T04:16:39.362Z,-4.60
2023-02-08T04:19:05.764Z,-4.43
2023-02-08T04:21:33.233Z,-4.59
2023-02-08T04:23:59.586Z,-4.47
2023-02-08T04:26:25.991Z,-4.72
2023-02-08T04:28:52.413Z,-4.79
2023-02-08T04:31:18.976Z,-4.87
2023-02-08T04:33:45.449Z,-4.84
2023-02-08T04:36:12.118Z,-4.89
2023-02-08T04:38:38.537Z,-4.89
2023-02-08T04:41:05.093Z,-5.03
2023-02-08T04:43:31.584Z,-4.85
2023-02-08T04:45:58.039Z,-4.73
2023-02-08T04:48:24.543Z,-4.91
2023-02-08T04:50:51.008Z,-4.89
2023-02-08T04:53:17.518Z,-4.76
2023-02-08T04:55:43.841Z,-4.75
2023-02-08T04:58:10.399Z,-4.78
2023-02-08T05:00:36.850Z,-4.72
2023-02-08T05:03:04.550Z,-4.82
2023-02-08T05:05:31.202Z,-4.81
2023-02-08T05:08:00.028Z,-4.83
2023-02-08T05:10:26.815Z,-4.80
2023-02-08T05:12:53.474Z,-4.73
2023-02-08T05:15:19.867Z,-4.87
2023-02-08T05:17:46.384Z,-4.89
2023-02-08T05:20:14.434Z,-5.06
2023-02-08T05:22:40.894Z,-5.10
2023-02-08T05:25:08.023Z,-5.18
2023-02-08T05:27:35.077Z,-5.09
2023-02-08T05:30:01.874Z,-4.52
2023-02-08T05:32:28.313Z,-4.62
2023-02-08T05:34:54.768Z,-4.82
2023-02-08T05:37:21.204Z,-4.72
2023-02-08T05:39:47.576Z,-5.07
2023-02-08T05:42:13.963Z,-4.98
2023-02-08T05:44:40.365Z,-4.78
2023-02-08T05:47:06.797Z,-4.74
2023-02-08T05:49:33.219Z,-4.81
2023-02-08T05:51:59.608Z,-4.74
2023-02-08T05:54:26.087Z,-4.66
2023-02-08T05:56:52.476Z,-4.90
2023-02-08T05:59:18.826Z,-4.72
2023-02-08T06:01:45.326Z,-4.72
2023-02-08T06:04:11.779Z,-4.55
2023-02-08T06:06:38.250Z,-4.53
2023-02-08T06:09:04.958Z,-4.46
2023-02-08T06:11:31.504Z,-4.50
2023-02-08T06:13:57.885Z,-4.62
2023-02-08T06:16:24.265Z,-4.40
2023-02-08T06:18:50.628Z,-4.30
2023-02-08T06:21:16.973Z,-4.35
2023-02-08T06:23:43.385Z,-4.41
2023-02-08T06:26:09.728Z,-4.67
2023-02-08T06:28:36.109Z,-4.64
2023-02-08T06:31:02.533Z,-4.80
2023-02-08T06:33:29.046Z,-4.88
2023-02-08T06:35:55.482Z,-4.83
2023-02-08T06:38:22.168Z,-4.77
2023-02-08T06:40:49.589Z,-4.78
2023-02-08T06:43:16.525Z,-4.78
2023-02-08T06:45:46.479Z,-4.64
2023-02-08T06:48:13.293Z,-4.58
2023-02-08T06:50:40.175Z,-4.77
2023-02-08T06:53:06.743Z,-4.71
2023-02-08T06:55:33.076Z,-4.64
2023-02-08T06:57:59.419Z,-4.65
2023-02-08T07:00:25.840Z,-4.68
2023-02-08T07:02:52.578Z,-4.69
2023-02-08T07:05:19.225Z,-4.86
2023-02-08T07:07:45.840Z,-4.79
2023-02-08T07:10:12.287Z,-4.69
2023-02-08T07:12:38.615Z,-4.75
2023-02-08T07:15:05.216Z,-4.84
2023-02-08T07:17:31.588Z,-4.71
2023-02-08T07:19:57.986Z,-4.62
2023-02-08T07:22:24.373Z,-4.63
2023-02-08T07:24:50.733Z,-4.33
2023-02-08T07:27:17.209Z,-4.41
2023-02-08T07:29:43.644Z,-4.21
2023-02-08T07:32:10.154Z,-4.25
2023-02-08T07:34:37.828Z,-4.29
2023-02-08T07:37:04.712Z,-4.27
2023-02-08T07:39:31.409Z,-4.19
2023-02-08T07:41:58.681Z,-3.89
2023-02-08T07:44:25.365Z,-3.91
2023-02-08T07:46:51.768Z,-3.82
2023-02-08T07:49:18.129Z,-3.85
2023-02-08T07:51:44.629Z,-3.65
2023-02-08T07:54:11.037Z,-3.67
2023-02-08T07:56:37.530Z,-3.54
2023-02-08T07:59:03.888Z,-3.43
2023-02-08T08:01:30.376Z,-3.16
2023-02-08T08:03:56.837Z,-3.12
2023-02-08T08:06:23.645Z,-3.10
2023-02-08T08:08:51.008Z,-2.94
2023-02-08T08:11:18.920Z,-2.81
2023-02-08T08:13:45.338Z,-2.70
2023-02-08T08:16:12.259Z,-2.60
2023-02-08T08:18:39.129Z,-2.48
2023-02-08T08:21:05.774Z,-2.50
2023-02-08T08:23:33.256Z,-2.36
2023-02-08T08:26:00.315Z,-2.20
2023-02-08T08:28:27.072Z,-2.15
2023-02-08T08:30:53.628Z,-2.05
2023-02-08T08:33:20.163Z,-1.95
2023-02-08T08:35:47.110Z,-1.75
2023-02-08T08:38:13.592Z,-1.62
2023-02-08T08:40:40.246Z,-1.56
2023-02-08T08:43:06.677Z,-1.32
2023-02-08T08:45:33.228Z,-1.00
2023-02-08T08:48:01.193Z,-0.89
2023-02-08T08:50:27.585Z,-0.51
2023-02-08T08:52:53.910Z,-0.27
2023-02-08T08:55:20.306Z,-0.13
2023-02-08T08:57:46.697Z,0.09
2023-02-08T09:00:13.569Z,0.17
2023-02-08T09:02:39.953Z,0.32
2023-02-08T09:05:08.022Z,0.34
2023-02-08T09:07:35.160Z,0.44
2023-02-08T09:10:01.630Z,0.48
2023-02-08T09:12:28.670Z,0.71
2023-02-08T09:14:55.025Z,0.72
2023-02-08T09:17:21.585Z,0.81
2023-02-08T09:19:47.930Z,0.79
2023-02-08T09:22:14.390Z,0.74
2023-02-08T09:24:40.851Z,0.88
2023-02-08T09:27:07.300Z,1.01
2023-02-08T09:29:34.304Z,0.91
2023-02-08T09:32:00.775Z,1.04
2023-02-08T09:34:27.798Z,1.01
2023-02-08T09:36:54.186Z,1.15
2023-02-08T09:39:23.731Z,1.18
2023-02-08T09:41:59.776Z,1.31
2023-02-08T09:44:47.242Z,1.21
2023-02-08T09:47:28.053Z,1.38
2023-02-08T09:50:01.769Z,1.24
2023-02-08T09:52:55.353Z,1.29
2023-02-08T09:55:33.217Z,1.54
2023-02-08T09:58:03.137Z,1.44
2023-02-08T10:00:51.238Z,1.65
2023-02-08T10:03:27.463Z,1.72
2023-02-08T10:05:54.121Z,1.74
2023-02-08T10:08:20.906Z,1.72
2023-02-08T10:11:19.698Z,1.87
2023-02-08T10:13:55.028Z,1.98
2023-02-08T10:16:42.538Z,1.89
2023-02-08T10:19:39.178Z,2.06
2023-02-08T10:22:24.162Z,2.07
2023-02-08T10:25:09.414Z,1.98
2023-02-08T10:27:44.770Z,1.97
2023-02-08T10:30:35.720Z,2.14
2023-02-08T10:33:20.784Z,2.16
2023-02-08T10:35:49.489Z,2.17
2023-02-08T10:38:44.178Z,2.38
2023-02-08T10:41:21.908Z,2.54
2023-02-08T10:44:02.317Z,2.56
2023-02-08T10:46:38.116Z,2.70
2023-02-08T10:49:33.272Z,2.65
2023-02-08T10:51:59.788Z,2.68
2023-02-08T10:54:26.189Z,2.74
2023-02-08T10:57:03.084Z,2.50
2023-02-08T10:59:46.136Z,2.51
2023-02-08T11:02:22.246Z,2.64
2023-02-08T11:05:13.158Z,2.74
2023-02-08T11:07:40.502Z,2.87
2023-02-08T11:10:14.499Z,2.89
2023-02-08T11:12:42.137Z,3.06
2023-02-08T11:15:23.737Z,3.21
2023-02-08T11:17:55.675Z,3.33
2023-02-08T11:20:38.792Z,3.07
2023-02-08T11:23:17.565Z,3.23
2023-02-08T11:25:44.124Z,3.35
2023-02-08T11:28:30.979Z,3.37
2023-02-08T11:31:01.125Z,3.17
2023-02-08T11:33:31.646Z,3.42
2023-02-08T11:36:07.462Z,3.47
2023-02-08T11:38:35.845Z,3.40
2023-02-08T11:41:05.691Z,3.66
2023-02-08T11:43:35.913Z,3.39
2023-02-08T11:46:04.932Z,3.50
2023-02-08T11:48:51.600Z,3.52
2023-02-08T11:51:37.455Z,3.51
2023-02-08T11:54:05.680Z,3.79
2023-02-08T11:56:34.347Z,3.46
2023-02-08T11:59:06.561Z,3.56
2023-02-08T12:01:38.314Z,3.65
2023-02-08T12:04:07.910Z,3.65
2023-02-08T12:07:11.325Z,3.74
2023-02-08T12:09:52.524Z,3.84
2023-02-08T12:12:33.813Z,3.88
2023-02-08T12:15:18.656Z,3.93
2023-02-08T12:18:03.642Z,4.09
2023-02-08T12:20:40.767Z,3.98
2023-02-08T12:23:35.560Z,4.21
2023-02-08T12:26:20.011Z,4.27
2023-02-08T12:29:06.142Z,4.28
2023-02-08T12:32:05.438Z,4.21
2023-02-08T12:34:50.003Z,4.19
2023-02-08T12:38:04.451Z,4.15
2023-02-08T12:40:49.744Z,3.89
2023-02-08T12:43:50.001Z,4.04
2023-02-08T12:46:40.230Z,4.23
2023-02-08T12:49:28.925Z,4.10
2023-02-08T12:52:13.569Z,4.06
2023-02-08T12:54:45.681Z,4.24
2023-02-08T12:57:15.913Z,4.27
2023-02-08T12:59:49.548Z,4.37
2023-02-08T13:02:29.550Z,4.47
2023-02-08T13:05:00.183Z,4.24
2023-02-08T13:07:34.224Z,4.35
2023-02-08T13:10:18.560Z,4.41
2023-02-08T13:12:51.543Z,4.28
2023-02-08T13:15:31.052Z,4.39
2023-02-08T13:18:01.311Z,4.34
2023-02-08T13:20:50.993Z,4.33
2023-02-08T13:23:26.763Z,4.53
2023-02-08T13:25:59.963Z,4.44
2023-02-08T13:28:27.489Z,4.60
2023-02-08T13:31:04.978Z,4.54
2023-02-08T13:34:00.484Z,4.62
2023-02-08T13:36:34.981Z,4.72
2023-02-08T13:39:05.270Z,4.83
2023-02-08T13:41:33.606Z,4.94
2023-02-08T13:44:09.157Z,4.91
2023-02-08T13:46:43.715Z,4.95
2023-02-08T13:49:48.386Z,4.87
2023-02-08T13:52:46.382Z,4.94
2023-02-08T13:55:28.690Z,4.89
2023-02-08T13:57:57.376Z,4.98
2023-02-08T14:00:29.887Z,4.91
2023-02-08T14:03:04.320Z,4.97
2023-02-08T14:05:42.851Z,4.83
2023-02-08T14:08:21.148Z,5.00
2023-02-08T14:11:01.699Z,4.97
2023-02-08T14:13:34.892Z,5.05
2023-02-08T14:16:32.600Z,5.22
2023-02-08T14:19:05.377Z,5.18
2023-02-08T14:21:36.479Z,5.16
2023-02-08T14:24:06.491Z,5.08
2023-02-08T14:26:33.548Z,5.11
2023-02-08T14:29:02.897Z,5.08
2023-02-08T14:31:38.985Z,4.95
2023-02-08T14:34:06.396Z,4.94
2023-02-08T14:36:36.533Z,5.01
2023-02-08T14:39:08.253Z,5.28
2023-02-08T14:42:00.026Z,5.23
2023-02-08T14:44:38.632Z,5.09
2023-02-08T14:47:12.647Z,5.12
2023-02-08T14:49:44.819Z,5.02
2023-02-08T14:52:21.709Z,5.04
2023-02-08T14:55:02.570Z,5.04
2023-02-08T14:57:36.508Z,5.08
2023-02-08T15:00:16.596Z,5.00
2023-02-08T15:02:45.964Z,4.95
2023-02-08T15:05:22.126Z,4.93
2023-02-08T15:07:54.989Z,4.90
2023-02-08T15:10:23.538Z,4.85
2023-02-08T15:12:54.739Z,4.97
2023-02-08T15:15:45.917Z,5.01
2023-02-08T15:18:19.913Z,5.13
2023-02-08T15:20:55.854Z,5.19
2023-02-08T15:23:23.941Z,5.30
2023-02-08T15:26:05.184Z,5.31
2023-02-08T15:28:34.894Z,5.28
2023-02-08T15:31:14.192Z,5.28
2023-02-08T15:33:45.323Z,5.17
2023-02-08T15:36:33.163Z,4.88
2023-02-08T15:39:03.701Z,4.99
2023-02-08T15:41:34.232Z,5.03
2023-02-08T15:44:25.269Z,5.05
2023-02-08T15:49:35.544Z,4.83
2023-02-08T15:52:03.323Z,4.79
2023-02-08T15:54:29.864Z,4.72
2023-02-08T15:57:01.547Z,4.68
2023-02-08T15:59:32.634Z,4.52
2023-02-08T16:02:09.370Z,4.44
2023-02-08T16:04:43.381Z,4.32
2023-02-08T16:07:23.464Z,4.34
2023-02-08T16:09:50.294Z,4.24
2023-02-08T16:12:22.546Z,4.21
2023-02-08T16:14:52.779Z,4.04
2023-02-08T16:17:42.600Z,3.96
2023-02-08T16:20:22.529Z,3.85
2023-02-08T16:23:18.297Z,3.61
2023-02-08T16:25:45.617Z,3.54
2023-02-08T16:28:27.803Z,3.33
2023-02-08T16:30:57.360Z,3.15
2023-02-08T16:33:24.389Z,3.16
2023-02-08T16:35:51.749Z,2.64
2023-02-08T16:38:23.349Z,2.52
2023-02-08T16:40:54.641Z,2.35
2023-02-08T16:43:29.345Z,2.41
2023-02-08T16:46:18.869Z,2.25
2023-02-08T16:48:49.724Z,2.34
2023-02-08T16:51:21.763Z,2.19
2023-02-08T16:53:50.724Z,2.08
2023-02-08T16:56:17.438Z,2.06
2023-02-08T16:58:43.812Z,1.96
2023-02-08T17:01:12.773Z,2.02
2023-02-08T17:03:39.505Z,1.86
2023-02-08T17:06:06.448Z,1.83
2023-02-08T17:08:35.702Z,1.73
2023-02-08T17:11:02.127Z,1.67
2023-02-08T17:13:28.442Z,1.58
2023-02-08T17:15:55.079Z,1.53
2023-02-08T17:18:21.528Z,1.32
2023-02-08T17:20:48.134Z,1.36
2023-02-08T17:23:15.784Z,1.51
2023-02-08T17:25:43.314Z,1.64
2023-02-08T17:28:17.071Z,1.56
2023-02-08T17:30:44.728Z,1.27
2023-02-08T17:33:20.508Z,1.32
2023-02-08T17:35:49.457Z,1.23
2023-02-08T17:38:16.494Z,1.06
2023-02-08T17:40:43.526Z,1.15
2023-02-08T17:43:11.322Z,1.06
2023-02-08T17:45:39.623Z,0.88
2023-02-08T17:48:07.084Z,0.90
2023-02-08T17:50:33.859Z,0.65
2023-02-08T17:53:00.241Z,0.73
2023-02-08T17:55:26.706Z,0.59
2023-02-08T17:57:53.662Z,0.58
2023-02-08T18:00:23.682Z,0.44
2023-02-08T18:02:52.805Z,0.42
2023-02-08T18:05:22.737Z,0.24
2023-02-08T18:07:50.237Z,0.07
2023-02-08T18:10:16.695Z,-0.11
2023-02-08T18:12:43.603Z,-0.11
2023-02-08T18:15:13.959Z,-0.08
2023-02-08T18:17:40.883Z,-0.40
2023-02-08T18:20:08.708Z,-0.48
2023-02-08T18:22:35.420Z,-0.48
2023-02-08T18:25:02.076Z,-0.38
2023-02-08T18:27:28.425Z,-0.19
2023-02-08T18:29:54.961Z,-0.37
2023-02-08T18:32:22.040Z,-0.24
2023-02-08T18:34:49.651Z,-0.12
2023-02-08T18:37:16.432Z,0.06
2023-02-08T18:39:43.012Z,0.17
2023-02-08T18:42:09.341Z,0.28
2023-02-08T18:44:41.530Z,0.29
2023-02-08T18:47:09.143Z,0.07
2023-02-08T18:49:40.735Z,0.10
2023-02-08T18:52:12.174Z,0.11
2023-02-08T18:54:39.685Z,0.17
2023-02-08T18:57:09.426Z,0.20
2023-02-08T18:59:36.103Z,0.12
2023-02-08T19:02:02.608Z,0.18
2023-02-08T19:04:29.496Z,0.33
2023-02-08T19:06:56.028Z,0.30
2023-02-08T19:09:22.395Z,0.40
2023-02-08T19:11:48.853Z,0.50
2023-02-08T19:14:15.877Z,0.67
2023-02-08T19:16:43.114Z,0.69
2023-02-08T19:19:10.207Z,0.70
2023-02-08T19:21:36.830Z,0.82
2023-02-08T19:24:03.702Z,0.91
2023-02-08T19:26:33.133Z,0.85
2023-02-08T19:29:03.100Z,0.67
2023-02-08T19:31:30.829Z,0.77
2023-02-08T19:33:59.697Z,0.65
2023-02-08T19:36:29.502Z,0.49
2023-02-08T19:38:57.130Z,0.38
2023-02-08T19:41:33.314Z,0.12
2023-02-08T19:44:03.799Z,-0.08
2023-02-08T19:46:31.536Z,0.01
2023-02-08T19:49:00.190Z,-0.11
2023-02-08T19:51:28.379Z,-0.20
2023-02-08T19:53:56.874Z,-0.14
2023-02-08T19:56:23.481Z,-0.48
2023-02-08T19:58:50.188Z,-0.75
2023-02-08T20:01:20.066Z,-0.79
2023-02-08T20:03:48.014Z,-0.81
2023-02-08T20:06:24.231Z,-0.97
2023-02-08T20:08:51.023Z,-0.94
2023-02-08T20:11:26.592Z,-0.82
2023-02-08T20:13:54.330Z,-0.83
2023-02-08T20:16:22.070Z,-0.91
2023-02-08T20:18:49.469Z,-0.88
2023-02-08T20:21:17.305Z,-0.73
2023-02-08T20:23:44.522Z,-1.00
2023-02-08T20:26:14.489Z,-0.87
2023-02-08T20:28:47.884Z,-1.01
2023-02-08T20:31:21.405Z,-1.19
2023-02-08T20:33:48.447Z,-1.30
2023-02-08T20:36:18.148Z,-1.27
2023-02-08T20:38:44.865Z,-1.18
2023-02-08T20:41:13.949Z,-1.45
2023-02-08T20:43:42.589Z,-1.31
2023-02-08T20:46:13.953Z,-1.47
2023-02-08T20:48:40.597Z,-1.47
2023-02-08T20:51:12.742Z,-1.85
2023-02-08T20:53:41.204Z,-1.81
2023-02-08T20:56:10.901Z,-1.96
2023-02-08T20:58:38.285Z,-2.06
2023-02-08T21:01:12.186Z,-1.90
2023-02-08T21:03:38.556Z,-1.71
2023-02-08T21:06:15.406Z,-1.96
2023-02-08T21:08:42.678Z,-1.86
2023-02-08T21:11:09.981Z,-1.94
2023-02-08T21:13:36.855Z,-1.89
2023-02-08T21:16:09.874Z,-1.79
2023-02-08T21:18:37.166Z,-1.44
2023-02-08T21:21:08.177Z,-1.98
2023-02-08T21:23:35.900Z,-1.89
2023-02-08T21:26:04.892Z,-1.95
2023-02-08T21:28:31.672Z,-2.00
2023-02-08T21:31:00.925Z,-1.93
2023-02-08T21:33:28.073Z,-1.96
2023-02-08T21:35:54.719Z,-1.90
2023-02-08T21:38:21.457Z,-2.07
2023-02-08T21:40:48.091Z,-2.21
2023-02-08T21:43:14.515Z,-2.30
2023-02-08T21:45:41.061Z,-2.53
2023-02-08T21:48:07.500Z,-2.51
2023-02-08T21:50:52.181Z,-2.63
2023-02-08T21:53:53.705Z,-2.36
2023-02-08T21:56:20.259Z,-2.49
2023-02-08T21:58:46.620Z,-2.47
2023-02-08T22:01:13.039Z,-2.45
2023-02-08T22:03:39.418Z,-2.36
2023-02-08T22:06:06.104Z,-2.50
2023-02-08T22:08:32.557Z,-2.79
2023-02-08T22:11:04.544Z,-2.88
2023-02-08T22:13:34.130Z,-2.91
2023-02-08T22:16:02.273Z,-2.72
2023-02-08T22:18:28.672Z,-2.55
2023-02-08T22:20:55.066Z,-2.52
2023-02-08T22:23:21.764Z,-2.59
2023-02-08T22:25:48.188Z,-3.00
2023-02-08T22:28:14.660Z,-3.11
2023-02-08T22:30:41.193Z,-3.15
2023-02-08T22:33:07.768Z,-3.14
2023-02-08T22:35:34.194Z,-3.28
2023-02-08T22:38:00.669Z,-3.32
2023-02-08T22:40:27.044Z,-3.32
2023-02-08T22:42:53.485Z,-3.41
2023-02-08T22:45:20.047Z,-3.41
2023-02-08T22:47:46.402Z,-3.47
2023-02-08T22:50:13.183Z,-3.17
2023-02-08T22:52:39.576Z,-3.21
2023-02-08T22:55:06.631Z,-3.16
2023-02-08T22:57:34.705Z,-2.99
2023-02-08T23:00:01.190Z,-3.10
2023-02-08T23:02:27.774Z,-2.99
2023-02-08T23:04:54.272Z,-3.04
2023-02-08T23:07:20.786Z,-3.07
2023-02-08T23:09:47.761Z,-3.21
2023-02-08T23:12:14.531Z,-3.26
2023-02-08T23:14:40.869Z,-3.16
2023-02-08T23:17:08.012Z,-3.28
2023-02-08T23:19:34.445Z,-3.21
2023-02-08T23:22:00.846Z,-3.17
2023-02-08T23:24:27.877Z,-3.11
2023-02-08T23:26:54.343Z,-3.10
2023-02-08T23:29:20.716Z,-3.17
2023-02-08T23:31:47.209Z,-3.17
2023-02-08T23:34:13.845Z,-3.33
2023-02-08T23:36:40.329Z,-3.32
2023-02-08T23:39:06.883Z,-3.38
2023-02-08T23:41:33.300Z,-3.46
2023-02-08T23:43:59.760Z,-3.46
2023-02-08T23:46:28.372Z,-3.22
2023-02-08T23:48:55.484Z,-3.26
2023-02-08T23:51:24.144Z,-3.16
2023-02-08T23:53:51.785Z,-3.59
2023-02-08T23:56:23.112Z,-3.52
2023-02-08T23:58:52.125Z,-3.66
